sensor_id;sensor_type;location;lat;lon;timestamp;P1;durP1;ratioP1;P2;durP2;ratioP2
38117;SDS011;23928;47.562;7.508;2023-05-25T00:00:18;7.40;;;3.13;;
38117;SDS011;23928;47.562;7.508;2023-05-25T00:02:44;6.90;;;3.07;;
38117;SDS011;23928;47.562;7.508;2023-05-25T00:05:11;11.70;;;4.10;;
38117;SDS011;23928;47.562;7.508;2023-05-25T00:07:37;9.07;;;3.33;;
38117;SDS011;23928;47.562;7.508;2023-05-25T00:10:03;8.03;;;3.47;;
38117;SDS011;23928;47.562;7.508;2023-05-25T00:12:31;8.03;;;3.50;;
38117;SDS011;23928;47.562;7.508;2023-05-25T00:14:57;9.77;;;3.97;;
38117;SDS011;23928;47.562;7.508;2023-05-25T00:17:23;9.53;;;3.70;;
38117;SDS011;23928;47.562;7.508;2023-05-25T00:19:49;8.50;;;3.47;;
38117;SDS011;23928;47.562;7.508;2023-05-25T00:22:14;8.17;;;3.37;;
38117;SDS011;23928;47.562;7.508;2023-05-25T00:24:40;7.20;;;3.20;;
38117;SDS011;23928;47.562;7.508;2023-05-25T00:27:06;12.47;;;3.60;;
38117;SDS011;23928;47.562;7.508;2023-05-25T00:29:32;8.80;;;3.63;;
38117;SDS011;23928;47.562;7.508;2023-05-25T00:31:59;9.83;;;3.27;;
38117;SDS011;23928;47.562;7.508;2023-05-25T00:34:24;6.40;;;3.63;;
38117;SDS011;23928;47.562;7.508;2023-05-25T00:36:50;11.03;;;3.80;;
38117;SDS011;23928;47.562;7.508;2023-05-25T00:39:16;10.27;;;3.27;;
38117;SDS011;23928;47.562;7.508;2023-05-25T00:41:43;7.57;;;3.40;;
38117;SDS011;23928;47.562;7.508;2023-05-25T00:44:10;3.97;;;2.93;;
38117;SDS011;23928;47.562;7.508;2023-05-25T00:46:40;5.37;;;2.80;;
38117;SDS011;23928;47.562;7.508;2023-05-25T00:49:12;5.50;;;3.23;;
38117;SDS011;23928;47.562;7.508;2023-05-25T00:51:39;8.27;;;3.47;;
38117;SDS011;23928;47.562;7.508;2023-05-25T00:54:05;11.13;;;3.43;;
38117;SDS011;23928;47.562;7.508;2023-05-25T00:56:31;9.97;;;4.00;;
38117;SDS011;23928;47.562;7.508;2023-05-25T00:59:03;6.57;;;3.40;;
38117;SDS011;23928;47.562;7.508;2023-05-25T01:01:34;5.83;;;3.17;;
38117;SDS011;23928;47.562;7.508;2023-05-25T01:04:05;7.73;;;3.30;;
38117;SDS011;23928;47.562;7.508;2023-05-25T01:06:33;7.90;;;3.20;;
38117;SDS011;23928;47.562;7.508;2023-05-25T01:09:03;10.63;;;3.30;;
38117;SDS011;23928;47.562;7.508;2023-05-25T01:11:33;10.30;;;3.50;;
38117;SDS011;23928;47.562;7.508;2023-05-25T01:14:01;7.83;;;3.50;;
38117;SDS011;23928;47.562;7.508;2023-05-25T01:16:27;7.70;;;3.23;;
38117;SDS011;23928;47.562;7.508;2023-05-25T01:18:53;7.10;;;3.53;;
38117;SDS011;23928;47.562;7.508;2023-05-25T01:23:55;8.17;;;3.40;;
38117;SDS011;23928;47.562;7.508;2023-05-25T01:26:28;5.70;;;3.30;;
38117;SDS011;23928;47.562;7.508;2023-05-25T01:28:59;9.20;;;3.70;;
38117;SDS011;23928;47.562;7.508;2023-05-25T01:31:26;8.80;;;3.30;;
38117;SDS011;23928;47.562;7.508;2023-05-25T01:33:52;7.37;;;2.83;;
38117;SDS011;23928;47.562;7.508;2023-05-25T01:36:20;8.00;;;3.17;;
38117;SDS011;23928;47.562;7.508;2023-05-25T01:38:45;5.87;;;3.30;;
38117;SDS011;23928;47.562;7.508;2023-05-25T01:41:11;10.53;;;3.73;;
38117;SDS011;23928;47.562;7.508;2023-05-25T01:43:37;7.00;;;3.90;;
38117;SDS011;23928;47.562;7.508;2023-05-25T01:46:08;6.47;;;3.53;;
38117;SDS011;23928;47.562;7.508;2023-05-25T01:49:01;10.90;;;4.40;;
38117;SDS011;23928;47.562;7.508;2023-05-25T01:54:42;8.70;;;3.10;;
38117;SDS011;23928;47.562;7.508;2023-05-25T01:57:11;8.97;;;3.67;;
38117;SDS011;23928;47.562;7.508;2023-05-25T01:59:40;9.47;;;3.73;;
38117;SDS011;23928;47.562;7.508;2023-05-25T02:02:08;12.30;;;4.07;;
38117;SDS011;23928;47.562;7.508;2023-05-25T02:04:34;11.60;;;3.33;;
38117;SDS011;23928;47.562;7.508;2023-05-25T02:07:02;9.23;;;3.33;;
38117;SDS011;23928;47.562;7.508;2023-05-25T02:09:28;7.43;;;3.00;;
38117;SDS011;23928;47.562;7.508;2023-05-25T02:11:54;6.00;;;2.97;;
38117;SDS011;23928;47.562;7.508;2023-05-25T02:14:20;10.23;;;3.47;;
38117;SDS011;23928;47.562;7.508;2023-05-25T02:16:46;5.90;;;2.93;;
38117;SDS011;23928;47.562;7.508;2023-05-25T02:19:12;6.93;;;3.47;;
38117;SDS011;23928;47.562;7.508;2023-05-25T02:21:39;4.70;;;2.73;;
38117;SDS011;23928;47.562;7.508;2023-05-25T02:24:05;7.43;;;3.27;;
38117;SDS011;23928;47.562;7.508;2023-05-25T02:26:33;8.13;;;3.43;;
38117;SDS011;23928;47.562;7.508;2023-05-25T02:28:59;7.03;;;3.30;;
38117;SDS011;23928;47.562;7.508;2023-05-25T02:31:26;8.70;;;3.67;;
38117;SDS011;23928;47.562;7.508;2023-05-25T02:33:52;10.43;;;3.20;;
38117;SDS011;23928;47.562;7.508;2023-05-25T02:36:17;10.47;;;3.67;;
38117;SDS011;23928;47.562;7.508;2023-05-25T02:38:43;4.00;;;3.00;;
38117;SDS011;23928;47.562;7.508;2023-05-25T02:41:09;7.47;;;3.03;;
38117;SDS011;23928;47.562;7.508;2023-05-25T02:43:35;10.23;;;3.73;;
38117;SDS011;23928;47.562;7.508;2023-05-25T02:46:01;6.73;;;3.47;;
38117;SDS011;23928;47.562;7.508;2023-05-25T02:48:27;8.07;;;3.30;;
38117;SDS011;23928;47.562;7.508;2023-05-25T02:50:52;10.43;;;3.80;;
38117;SDS011;23928;47.562;7.508;2023-05-25T02:53:18;8.10;;;3.20;;
38117;SDS011;23928;47.562;7.508;2023-05-25T02:55:43;9.10;;;3.70;;
38117;SDS011;23928;47.562;7.508;2023-05-25T02:58:09;6.57;;;3.57;;
38117;SDS011;23928;47.562;7.508;2023-05-25T03:00:35;8.10;;;2.93;;
38117;SDS011;23928;47.562;7.508;2023-05-25T03:03:01;7.63;;;3.30;;
38117;SDS011;23928;47.562;7.508;2023-05-25T03:05:27;7.80;;;3.10;;
38117;SDS011;23928;47.562;7.508;2023-05-25T03:07:53;6.97;;;3.00;;
38117;SDS011;23928;47.562;7.508;2023-05-25T03:10:18;8.10;;;3.20;;
38117;SDS011;23928;47.562;7.508;2023-05-25T03:12:44;7.07;;;3.03;;
38117;SDS011;23928;47.562;7.508;2023-05-25T03:15:09;6.80;;;3.10;;
38117;SDS011;23928;47.562;7.508;2023-05-25T03:17:37;7.33;;;3.33;;
38117;SDS011;23928;47.562;7.508;2023-05-25T03:20:03;8.93;;;3.03;;
38117;SDS011;23928;47.562;7.508;2023-05-25T03:22:30;6.57;;;3.10;;
38117;SDS011;23928;47.562;7.508;2023-05-25T03:24:55;10.47;;;3.37;;
38117;SDS011;23928;47.562;7.508;2023-05-25T03:27:21;7.63;;;3.17;;
38117;SDS011;23928;47.562;7.508;2023-05-25T03:29:49;8.13;;;3.43;;
38117;SDS011;23928;47.562;7.508;2023-05-25T03:32:15;10.97;;;3.33;;
38117;SDS011;23928;47.562;7.508;2023-05-25T03:34:41;9.97;;;3.63;;
38117;SDS011;23928;47.562;7.508;2023-05-25T03:37:08;5.73;;;2.93;;
38117;SDS011;23928;47.562;7.508;2023-05-25T03:39:34;13.00;;;3.87;;
38117;SDS011;23928;47.562;7.508;2023-05-25T03:42:00;6.80;;;3.10;;
38117;SDS011;23928;47.562;7.508;2023-05-25T03:44:26;5.70;;;3.33;;
38117;SDS011;23928;47.562;7.508;2023-05-25T03:46:52;6.77;;;3.17;;
38117;SDS011;23928;47.562;7.508;2023-05-25T03:49:18;6.73;;;3.20;;
38117;SDS011;23928;47.562;7.508;2023-05-25T03:51:43;6.37;;;3.33;;
38117;SDS011;23928;47.562;7.508;2023-05-25T03:54:09;8.57;;;3.20;;
38117;SDS011;23928;47.562;7.508;2023-05-25T03:56:35;9.33;;;3.93;;
38117;SDS011;23928;47.562;7.508;2023-05-25T03:59:00;10.13;;;3.50;;
38117;SDS011;23928;47.562;7.508;2023-05-25T04:01:26;8.83;;;3.20;;
38117;SDS011;23928;47.562;7.508;2023-05-25T04:03:54;7.97;;;3.63;;
38117;SDS011;23928;47.562;7.508;2023-05-25T04:06:20;6.90;;;3.27;;
38117;SDS011;23928;47.562;7.508;2023-05-25T04:08:49;12.80;;;3.00;;
38117;SDS011;23928;47.562;7.508;2023-05-25T04:11:17;9.60;;;3.63;;
38117;SDS011;23928;47.562;7.508;2023-05-25T04:13:43;9.07;;;3.30;;
38117;SDS011;23928;47.562;7.508;2023-05-25T04:16:10;6.27;;;2.90;;
38117;SDS011;23928;47.562;7.508;2023-05-25T04:18:36;13.93;;;3.70;;
38117;SDS011;23928;47.562;7.508;2023-05-25T04:21:02;8.70;;;3.23;;
38117;SDS011;23928;47.562;7.508;2023-05-25T04:23:28;8.33;;;3.20;;
38117;SDS011;23928;47.562;7.508;2023-05-25T04:25:53;6.23;;;3.20;;
38117;SDS011;23928;47.562;7.508;2023-05-25T04:28:19;11.57;;;3.43;;
38117;SDS011;23928;47.562;7.508;2023-05-25T04:30:45;10.60;;;3.53;;
38117;SDS011;23928;47.562;7.508;2023-05-25T04:33:11;7.57;;;3.43;;
38117;SDS011;23928;47.562;7.508;2023-05-25T04:35:37;9.87;;;3.23;;
38117;SDS011;23928;47.562;7.508;2023-05-25T04:38:04;9.30;;;3.50;;
38117;SDS011;23928;47.562;7.508;2023-05-25T04:40:31;7.30;;;3.63;;
38117;SDS011;23928;47.562;7.508;2023-05-25T04:42:59;9.47;;;3.40;;
38117;SDS011;23928;47.562;7.508;2023-05-25T04:45:25;8.70;;;3.07;;
38117;SDS011;23928;47.562;7.508;2023-05-25T04:47:53;8.43;;;3.43;;
38117;SDS011;23928;47.562;7.508;2023-05-25T04:50:20;7.87;;;3.40;;
38117;SDS011;23928;47.562;7.508;2023-05-25T04:52:45;10.27;;;3.80;;
38117;SDS011;23928;47.562;7.508;2023-05-25T04:55:11;8.47;;;3.20;;
38117;SDS011;23928;47.562;7.508;2023-05-25T04:57:37;7.60;;;3.57;;
38117;SDS011;23928;47.562;7.508;2023-05-25T05:00:03;15.77;;;3.80;;
38117;SDS011;23928;47.562;7.508;2023-05-25T05:02:30;9.33;;;3.77;;
38117;SDS011;23928;47.562;7.508;2023-05-25T05:04:55;8.67;;;3.40;;
38117;SDS011;23928;47.562;7.508;2023-05-25T05:07:21;10.00;;;3.30;;
38117;SDS011;23928;47.562;7.508;2023-05-25T05:09:47;7.73;;;3.70;;
38117;SDS011;23928;47.562;7.508;2023-05-25T05:12:13;8.03;;;3.57;;
38117;SDS011;23928;47.562;7.508;2023-05-25T05:14:38;9.27;;;4.13;;
38117;SDS011;23928;47.562;7.508;2023-05-25T05:17:05;6.80;;;3.43;;
38117;SDS011;23928;47.562;7.508;2023-05-25T05:19:30;7.13;;;3.00;;
38117;SDS011;23928;47.562;7.508;2023-05-25T05:21:57;8.00;;;3.57;;
38117;SDS011;23928;47.562;7.508;2023-05-25T05:24:23;9.93;;;3.60;;
38117;SDS011;23928;47.562;7.508;2023-05-25T05:26:48;10.40;;;3.77;;
38117;SDS011;23928;47.562;7.508;2023-05-25T05:29:14;11.23;;;4.00;;
38117;SDS011;23928;47.562;7.508;2023-05-25T05:31:41;9.50;;;3.50;;
38117;SDS011;23928;47.562;7.508;2023-05-25T05:34:06;12.17;;;4.50;;
38117;SDS011;23928;47.562;7.508;2023-05-25T05:36:32;11.77;;;4.40;;
38117;SDS011;23928;47.562;7.508;2023-05-25T05:38:58;8.73;;;3.63;;
38117;SDS011;23928;47.562;7.508;2023-05-25T05:41:24;9.97;;;4.03;;
38117;SDS011;23928;47.562;7.508;2023-05-25T05:43:51;9.37;;;4.70;;
38117;SDS011;23928;47.562;7.508;2023-05-25T05:46:16;10.40;;;4.83;;
38117;SDS011;23928;47.562;7.508;2023-05-25T05:48:42;8.67;;;3.97;;
38117;SDS011;23928;47.562;7.508;2023-05-25T05:51:07;8.33;;;4.10;;
38117;SDS011;23928;47.562;7.508;2023-05-25T05:53:33;11.90;;;4.37;;
38117;SDS011;23928;47.562;7.508;2023-05-25T05:56:02;12.90;;;4.77;;
38117;SDS011;23928;47.562;7.508;2023-05-25T05:58:28;7.73;;;3.93;;
38117;SDS011;23928;47.562;7.508;2023-05-25T06:00:54;10.23;;;4.17;;
38117;SDS011;23928;47.562;7.508;2023-05-25T06:03:23;9.03;;;4.10;;
38117;SDS011;23928;47.562;7.508;2023-05-25T06:05:49;9.97;;;4.13;;
38117;SDS011;23928;47.562;7.508;2023-05-25T06:08:14;9.23;;;4.10;;
38117;SDS011;23928;47.562;7.508;2023-05-25T06:10:40;8.60;;;4.13;;
38117;SDS011;23928;47.562;7.508;2023-05-25T06:13:06;8.57;;;4.20;;
38117;SDS011;23928;47.562;7.508;2023-05-25T06:15:32;9.00;;;4.07;;
38117;SDS011;23928;47.562;7.508;2023-05-25T06:17:58;9.03;;;4.20;;
38117;SDS011;23928;47.562;7.508;2023-05-25T06:20:24;8.57;;;3.83;;
38117;SDS011;23928;47.562;7.508;2023-05-25T06:22:49;10.90;;;4.37;;
38117;SDS011;23928;47.562;7.508;2023-05-25T06:25:15;11.17;;;4.40;;
38117;SDS011;23928;47.562;7.508;2023-05-25T06:27:40;9.43;;;5.13;;
38117;SDS011;23928;47.562;7.508;2023-05-25T06:30:06;12.83;;;4.83;;
38117;SDS011;23928;47.562;7.508;2023-05-25T06:32:32;10.60;;;4.53;;
38117;SDS011;23928;47.562;7.508;2023-05-25T06:34:58;10.63;;;4.50;;
38117;SDS011;23928;47.562;7.508;2023-05-25T06:37:24;11.03;;;4.17;;
38117;SDS011;23928;47.562;7.508;2023-05-25T06:39:51;14.00;;;4.77;;
38117;SDS011;23928;47.562;7.508;2023-05-25T06:42:16;13.07;;;5.33;;
38117;SDS011;23928;47.562;7.508;2023-05-25T06:44:42;12.27;;;4.67;;
38117;SDS011;23928;47.562;7.508;2023-05-25T06:47:07;8.27;;;4.93;;
38117;SDS011;23928;47.562;7.508;2023-05-25T06:49:33;12.33;;;4.80;;
38117;SDS011;23928;47.562;7.508;2023-05-25T06:51:58;9.23;;;4.60;;
38117;SDS011;23928;47.562;7.508;2023-05-25T06:54:24;8.70;;;4.10;;
38117;SDS011;23928;47.562;7.508;2023-05-25T06:56:50;8.40;;;3.90;;
38117;SDS011;23928;47.562;7.508;2023-05-25T06:59:16;10.00;;;4.57;;
38117;SDS011;23928;47.562;7.508;2023-05-25T07:01:42;10.67;;;4.50;;
38117;SDS011;23928;47.562;7.508;2023-05-25T07:04:10;8.37;;;3.93;;
38117;SDS011;23928;47.562;7.508;2023-05-25T07:06:35;9.73;;;4.37;;
38117;SDS011;23928;47.562;7.508;2023-05-25T07:09:01;10.83;;;4.00;;
38117;SDS011;23928;47.562;7.508;2023-05-25T07:11:27;9.63;;;4.37;;
38117;SDS011;23928;47.562;7.508;2023-05-25T07:13:52;11.33;;;4.60;;
38117;SDS011;23928;47.562;7.508;2023-05-25T07:16:18;8.47;;;4.00;;
38117;SDS011;23928;47.562;7.508;2023-05-25T07:18:43;10.70;;;4.60;;
38117;SDS011;23928;47.562;7.508;2023-05-25T07:21:09;6.57;;;3.83;;
38117;SDS011;23928;47.562;7.508;2023-05-25T07:23:35;9.00;;;3.70;;
38117;SDS011;23928;47.562;7.508;2023-05-25T07:26:01;9.70;;;4.60;;
38117;SDS011;23928;47.562;7.508;2023-05-25T07:28:27;9.80;;;4.50;;
38117;SDS011;23928;47.562;7.508;2023-05-25T07:30:52;10.40;;;4.33;;
38117;SDS011;23928;47.562;7.508;2023-05-25T07:33:18;8.83;;;4.30;;
38117;SDS011;23928;47.562;7.508;2023-05-25T07:35:44;7.23;;;3.93;;
38117;SDS011;23928;47.562;7.508;2023-05-25T07:38:09;11.23;;;4.77;;
38117;SDS011;23928;47.562;7.508;2023-05-25T07:40:35;13.53;;;4.50;;
38117;SDS011;23928;47.562;7.508;2023-05-25T07:43:01;9.30;;;4.40;;
38117;SDS011;23928;47.562;7.508;2023-05-25T07:45:26;8.63;;;4.33;;
38117;SDS011;23928;47.562;7.508;2023-05-25T07:47:52;9.03;;;4.30;;
38117;SDS011;23928;47.562;7.508;2023-05-25T07:50:17;11.73;;;4.60;;
38117;SDS011;23928;47.562;7.508;2023-05-25T07:52:43;11.50;;;4.40;;
38117;SDS011;23928;47.562;7.508;2023-05-25T07:55:09;9.63;;;4.53;;
38117;SDS011;23928;47.562;7.508;2023-05-25T07:57:35;9.50;;;4.50;;
38117;SDS011;23928;47.562;7.508;2023-05-25T08:00:00;10.07;;;4.07;;
38117;SDS011;23928;47.562;7.508;2023-05-25T08:02:26;10.13;;;4.57;;
38117;SDS011;23928;47.562;7.508;2023-05-25T08:04:52;10.47;;;4.23;;
38117;SDS011;23928;47.562;7.508;2023-05-25T08:07:18;8.20;;;4.30;;
38117;SDS011;23928;47.562;7.508;2023-05-25T08:09:44;10.20;;;4.50;;
38117;SDS011;23928;47.562;7.508;2023-05-25T08:12:10;8.33;;;4.60;;
38117;SDS011;23928;47.562;7.508;2023-05-25T08:14:35;8.40;;;4.47;;
38117;SDS011;23928;47.562;7.508;2023-05-25T08:17:01;13.77;;;4.73;;
38117;SDS011;23928;47.562;7.508;2023-05-25T08:19:28;9.80;;;4.93;;
38117;SDS011;23928;47.562;7.508;2023-05-25T08:21:56;9.60;;;4.47;;
38117;SDS011;23928;47.562;7.508;2023-05-25T08:24:22;14.60;;;4.70;;
38117;SDS011;23928;47.562;7.508;2023-05-25T08:26:47;10.57;;;4.43;;
38117;SDS011;23928;47.562;7.508;2023-05-25T08:29:13;7.50;;;4.10;;
38117;SDS011;23928;47.562;7.508;2023-05-25T08:31:39;8.33;;;4.53;;
38117;SDS011;23928;47.562;7.508;2023-05-25T08:34:07;9.10;;;4.90;;
38117;SDS011;23928;47.562;7.508;2023-05-25T08:36:33;9.27;;;4.60;;
38117;SDS011;23928;47.562;7.508;2023-05-25T08:39:00;10.63;;;5.33;;
38117;SDS011;23928;47.562;7.508;2023-05-25T08:41:25;11.40;;;4.87;;
38117;SDS011;23928;47.562;7.508;2023-05-25T08:43:52;8.00;;;4.67;;
38117;SDS011;23928;47.562;7.508;2023-05-25T08:46:27;11.53;;;4.93;;
38117;SDS011;23928;47.562;7.508;2023-05-25T08:48:56;10.03;;;4.60;;
38117;SDS011;23928;47.562;7.508;2023-05-25T08:51:25;9.57;;;4.90;;
38117;SDS011;23928;47.562;7.508;2023-05-25T08:53:53;9.40;;;4.70;;
38117;SDS011;23928;47.562;7.508;2023-05-25T08:56:23;11.80;;;5.03;;
38117;SDS011;23928;47.562;7.508;2023-05-25T08:59:05;10.77;;;5.23;;
38117;SDS011;23928;47.562;7.508;2023-05-25T09:01:41;10.43;;;5.13;;
38117;SDS011;23928;47.562;7.508;2023-05-25T09:04:10;10.37;;;4.63;;
38117;SDS011;23928;47.562;7.508;2023-05-25T09:06:37;18.20;;;4.93;;
38117;SDS011;23928;47.562;7.508;2023-05-25T09:09:03;10.53;;;4.50;;
38117;SDS011;23928;47.562;7.508;2023-05-25T09:11:29;11.00;;;4.87;;
38117;SDS011;23928;47.562;7.508;2023-05-25T09:13:56;10.73;;;4.50;;
38117;SDS011;23928;47.562;7.508;2023-05-25T09:16:22;7.77;;;4.60;;
38117;SDS011;23928;47.562;7.508;2023-05-25T09:18:49;12.03;;;4.80;;
38117;SDS011;23928;47.562;7.508;2023-05-25T09:21:15;9.13;;;4.70;;
38117;SDS011;23928;47.562;7.508;2023-05-25T09:23:41;8.93;;;3.90;;
38117;SDS011;23928;47.562;7.508;2023-05-25T09:26:07;8.27;;;4.40;;
38117;SDS011;23928;47.562;7.508;2023-05-25T09:28:32;8.40;;;4.40;;
38117;SDS011;23928;47.562;7.508;2023-05-25T09:30:58;8.27;;;4.67;;
38117;SDS011;23928;47.562;7.508;2023-05-25T09:33:24;8.43;;;4.13;;
38117;SDS011;23928;47.562;7.508;2023-05-25T09:35:50;8.00;;;4.63;;
38117;SDS011;23928;47.562;7.508;2023-05-25T09:38:16;13.10;;;5.63;;
38117;SDS011;23928;47.562;7.508;2023-05-25T09:40:42;9.10;;;4.70;;
38117;SDS011;23928;47.562;7.508;2023-05-25T09:43:08;10.03;;;5.33;;
38117;SDS011;23928;47.562;7.508;2023-05-25T09:45:35;10.37;;;4.73;;
38117;SDS011;23928;47.562;7.508;2023-05-25T09:48:01;10.73;;;4.60;;
38117;SDS011;23928;47.562;7.508;2023-05-25T09:50:28;15.07;;;4.93;;
38117;SDS011;23928;47.562;7.508;2023-05-25T09:52:56;12.77;;;5.57;;
38117;SDS011;23928;47.562;7.508;2023-05-25T09:55:24;8.70;;;5.17;;
38117;SDS011;23928;47.562;7.508;2023-05-25T09:57:52;9.67;;;4.77;;
38117;SDS011;23928;47.562;7.508;2023-05-25T10:00:18;7.17;;;4.57;;
38117;SDS011;23928;47.562;7.508;2023-05-25T10:02:46;12.03;;;5.57;;
38117;SDS011;23928;47.562;7.508;2023-05-25T10:05:11;9.03;;;5.20;;
38117;SDS011;23928;47.562;7.508;2023-05-25T10:07:37;8.83;;;5.10;;
38117;SDS011;23928;47.562;7.508;2023-05-25T10:10:05;8.97;;;5.07;;
38117;SDS011;23928;47.562;7.508;2023-05-25T10:12:32;9.37;;;5.07;;
38117;SDS011;23928;47.562;7.508;2023-05-25T10:14:58;9.07;;;5.37;;
38117;SDS011;23928;47.562;7.508;2023-05-25T10:17:29;7.73;;;5.37;;
38117;SDS011;23928;47.562;7.508;2023-05-25T10:19:59;7.50;;;5.17;;
38117;SDS011;23928;47.562;7.508;2023-05-25T10:22:31;11.43;;;5.17;;
38117;SDS011;23928;47.562;7.508;2023-05-25T10:25:06;7.87;;;5.30;;
38117;SDS011;23928;47.562;7.508;2023-05-25T10:27:39;8.50;;;5.03;;
38117;SDS011;23928;47.562;7.508;2023-05-25T10:30:10;9.33;;;5.07;;
38117;SDS011;23928;47.562;7.508;2023-05-25T10:32:38;8.47;;;4.97;;
38117;SDS011;23928;47.562;7.508;2023-05-25T10:35:06;10.17;;;5.43;;
38117;SDS011;23928;47.562;7.508;2023-05-25T10:37:34;9.30;;;4.40;;
38117;SDS011;23928;47.562;7.508;2023-05-25T10:40:01;10.13;;;4.80;;
38117;SDS011;23928;47.562;7.508;2023-05-25T10:42:30;13.80;;;5.67;;
38117;SDS011;23928;47.562;7.508;2023-05-25T10:44:56;15.90;;;5.80;;
38117;SDS011;23928;47.562;7.508;2023-05-25T10:47:22;9.60;;;5.33;;
38117;SDS011;23928;47.562;7.508;2023-05-25T10:49:52;11.00;;;5.57;;
38117;SDS011;23928;47.562;7.508;2023-05-25T10:52:28;9.10;;;5.00;;
38117;SDS011;23928;47.562;7.508;2023-05-25T10:54:55;8.50;;;4.93;;
38117;SDS011;23928;47.562;7.508;2023-05-25T10:57:29;11.13;;;5.50;;
38117;SDS011;23928;47.562;7.508;2023-05-25T10:59:59;8.97;;;5.40;;
38117;SDS011;23928;47.562;7.508;2023-05-25T11:02:29;13.10;;;5.47;;
38117;SDS011;23928;47.562;7.508;2023-05-25T11:07:53;9.47;;;5.07;;
38117;SDS011;23928;47.562;7.508;2023-05-25T11:18:51;8.80;;;5.40;;
38117;SDS011;23928;47.562;7.508;2023-05-25T11:23:55;9.67;;;5.07;;
38117;SDS011;23928;47.562;7.508;2023-05-25T11:26:29;8.70;;;5.07;;
38117;SDS011;23928;47.562;7.508;2023-05-25T11:28:55;10.57;;;4.83;;
38117;SDS011;23928;47.562;7.508;2023-05-25T11:33:59;10.07;;;4.73;;
38117;SDS011;23928;47.562;7.508;2023-05-25T11:36:26;7.17;;;4.97;;
38117;SDS011;23928;47.562;7.508;2023-05-25T11:38:57;7.93;;;4.80;;
38117;SDS011;23928;47.562;7.508;2023-05-25T11:41:25;7.37;;;4.73;;
38117;SDS011;23928;47.562;7.508;2023-05-25T11:43:52;6.80;;;4.47;;
38117;SDS011;23928;47.562;7.508;2023-05-25T11:46:18;7.80;;;4.47;;
38117;SDS011;23928;47.562;7.508;2023-05-25T11:48:48;9.80;;;5.20;;
38117;SDS011;23928;47.562;7.508;2023-05-25T11:51:25;11.83;;;5.17;;
38117;SDS011;23928;47.562;7.508;2023-05-25T11:53:52;9.00;;;4.67;;
38117;SDS011;23928;47.562;7.508;2023-05-25T11:56:18;9.63;;;4.60;;
38117;SDS011;23928;47.562;7.508;2023-05-25T11:58:44;8.03;;;4.43;;
38117;SDS011;23928;47.562;7.508;2023-05-25T12:01:18;7.47;;;4.37;;
38117;SDS011;23928;47.562;7.508;2023-05-25T12:03:45;8.00;;;4.23;;
38117;SDS011;23928;47.562;7.508;2023-05-25T12:06:30;9.17;;;4.67;;
38117;SDS011;23928;47.562;7.508;2023-05-25T12:09:09;11.30;;;5.30;;
38117;SDS011;23928;47.562;7.508;2023-05-25T12:11:36;8.57;;;4.40;;
38117;SDS011;23928;47.562;7.508;2023-05-25T12:14:03;10.93;;;4.87;;
38117;SDS011;23928;47.562;7.508;2023-05-25T12:16:30;13.70;;;5.33;;
38117;SDS011;23928;47.562;7.508;2023-05-25T12:19:02;9.90;;;5.40;;
38117;SDS011;23928;47.562;7.508;2023-05-25T12:21:29;5.33;;;4.40;;
38117;SDS011;23928;47.562;7.508;2023-05-25T12:23:55;9.67;;;4.63;;
38117;SDS011;23928;47.562;7.508;2023-05-25T12:26:21;9.47;;;4.70;;
38117;SDS011;23928;47.562;7.508;2023-05-25T12:29:00;6.87;;;4.60;;
38117;SDS011;23928;47.562;7.508;2023-05-25T12:31:33;8.03;;;4.60;;
38117;SDS011;23928;47.562;7.508;2023-05-25T12:34:01;9.90;;;4.47;;
38117;SDS011;23928;47.562;7.508;2023-05-25T12:36:41;12.27;;;5.10;;
38117;SDS011;23928;47.562;7.508;2023-05-25T12:39:11;8.57;;;5.30;;
38117;SDS011;23928;47.562;7.508;2023-05-25T12:41:51;7.37;;;4.97;;
38117;SDS011;23928;47.562;7.508;2023-05-25T12:44:18;9.60;;;5.57;;
38117;SDS011;23928;47.562;7.508;2023-05-25T12:46:50;9.87;;;4.90;;
38117;SDS011;23928;47.562;7.508;2023-05-25T12:49:23;11.10;;;4.70;;
38117;SDS011;23928;47.562;7.508;2023-05-25T12:51:56;9.60;;;5.43;;
38117;SDS011;23928;47.562;7.508;2023-05-25T12:54:36;10.10;;;5.07;;
38117;SDS011;23928;47.562;7.508;2023-05-25T12:57:13;6.57;;;4.20;;
38117;SDS011;23928;47.562;7.508;2023-05-25T12:59:41;7.70;;;4.67;;
38117;SDS011;23928;47.562;7.508;2023-05-25T13:02:10;6.57;;;4.47;;
38117;SDS011;23928;47.562;7.508;2023-05-25T13:04:37;7.73;;;4.53;;
38117;SDS011;23928;47.562;7.508;2023-05-25T13:07:04;6.93;;;4.73;;
38117;SDS011;23928;47.562;7.508;2023-05-25T13:09:30;6.80;;;4.50;;
38117;SDS011;23928;47.562;7.508;2023-05-25T13:11:56;8.20;;;4.30;;
38117;SDS011;23928;47.562;7.508;2023-05-25T13:14:23;8.10;;;4.50;;
38117;SDS011;23928;47.562;7.508;2023-05-25T13:16:49;5.73;;;4.33;;
38117;SDS011;23928;47.562;7.508;2023-05-25T13:19:16;7.57;;;4.50;;
38117;SDS011;23928;47.562;7.508;2023-05-25T13:21:43;7.03;;;4.40;;
38117;SDS011;23928;47.562;7.508;2023-05-25T13:24:09;6.40;;;4.43;;
38117;SDS011;23928;47.562;7.508;2023-05-25T13:26:35;7.40;;;4.03;;
38117;SDS011;23928;47.562;7.508;2023-05-25T13:29:01;9.50;;;5.07;;
38117;SDS011;23928;47.562;7.508;2023-05-25T13:31:27;7.10;;;4.87;;
38117;SDS011;23928;47.562;7.508;2023-05-25T13:33:52;8.23;;;4.87;;
38117;SDS011;23928;47.562;7.508;2023-05-25T13:36:18;8.43;;;4.97;;
38117;SDS011;23928;47.562;7.508;2023-05-25T13:38:43;6.50;;;4.60;;
38117;SDS011;23928;47.562;7.508;2023-05-25T13:41:09;6.50;;;4.83;;
38117;SDS011;23928;47.562;7.508;2023-05-25T13:43:35;8.23;;;5.00;;
38117;SDS011;23928;47.562;7.508;2023-05-25T13:46:01;6.93;;;4.57;;
38117;SDS011;23928;47.562;7.508;2023-05-25T13:48:27;7.67;;;4.83;;
38117;SDS011;23928;47.562;7.508;2023-05-25T13:50:53;7.97;;;4.63;;
38117;SDS011;23928;47.562;7.508;2023-05-25T13:53:19;4.87;;;4.30;;
38117;SDS011;23928;47.562;7.508;2023-05-25T13:55:45;7.10;;;4.63;;
38117;SDS011;23928;47.562;7.508;2023-05-25T13:58:11;7.47;;;4.87;;
38117;SDS011;23928;47.562;7.508;2023-05-25T14:00:37;8.70;;;5.10;;
38117;SDS011;23928;47.562;7.508;2023-05-25T14:03:02;8.40;;;4.77;;
38117;SDS011;23928;47.562;7.508;2023-05-25T14:05:28;6.10;;;4.70;;
38117;SDS011;23928;47.562;7.508;2023-05-25T14:07:54;7.60;;;4.90;;
38117;SDS011;23928;47.562;7.508;2023-05-25T14:10:20;7.43;;;4.27;;
38117;SDS011;23928;47.562;7.508;2023-05-25T14:12:46;6.00;;;4.50;;
38117;SDS011;23928;47.562;7.508;2023-05-25T14:15:12;5.27;;;4.50;;
38117;SDS011;23928;47.562;7.508;2023-05-25T14:17:37;6.50;;;4.40;;
38117;SDS011;23928;47.562;7.508;2023-05-25T14:20:03;7.93;;;4.90;;
38117;SDS011;23928;47.562;7.508;2023-05-25T14:22:30;8.00;;;4.63;;
38117;SDS011;23928;47.562;7.508;2023-05-25T14:24:55;11.43;;;5.33;;
38117;SDS011;23928;47.562;7.508;2023-05-25T14:27:21;6.10;;;4.47;;
38117;SDS011;23928;47.562;7.508;2023-05-25T14:29:47;9.80;;;4.93;;
38117;SDS011;23928;47.562;7.508;2023-05-25T14:32:13;6.37;;;4.33;;
38117;SDS011;23928;47.562;7.508;2023-05-25T14:34:39;8.17;;;4.63;;
38117;SDS011;23928;47.562;7.508;2023-05-25T14:37:05;8.23;;;4.50;;
38117;SDS011;23928;47.562;7.508;2023-05-25T14:39:31;9.37;;;4.87;;
38117;SDS011;23928;47.562;7.508;2023-05-25T14:41:57;6.23;;;4.77;;
38117;SDS011;23928;47.562;7.508;2023-05-25T14:44:22;8.27;;;4.60;;
38117;SDS011;23928;47.562;7.508;2023-05-25T14:46:48;7.53;;;4.67;;
38117;SDS011;23928;47.562;7.508;2023-05-25T14:49:14;8.07;;;4.87;;
38117;SDS011;23928;47.562;7.508;2023-05-25T14:51:41;5.87;;;4.30;;
38117;SDS011;23928;47.562;7.508;2023-05-25T14:54:06;8.27;;;4.57;;
38117;SDS011;23928;47.562;7.508;2023-05-25T14:56:32;8.77;;;4.60;;
38117;SDS011;23928;47.562;7.508;2023-05-25T14:58:58;6.67;;;4.23;;
38117;SDS011;23928;47.562;7.508;2023-05-25T15:01:24;10.37;;;4.90;;
38117;SDS011;23928;47.562;7.508;2023-05-25T15:03:50;7.23;;;4.17;;